Time;durP1;ratioP1;P1;durP2;ratioP2;P2;SDS_P1;SDS_P2;PMS_P1;PMS_P2;Temp;Humidity;BMP_temperature;BMP_pressure;BME280_temperature;BME280_humidity;BME280_pressure;Samples;Min_cycle;Max_cycle;Signal;HPM_P1;HPM_P2
2023/09/18 00:01:39;;;;;;;;;;;24.20;76.30;;;;;;5087357;28;20293;-71
2023/09/18 00:04:06;;;;;;;;;;;24.40;76.00;;;;;;5093998;28;19966;-72
2023/09/18 00:06:33;;;;;;;;;;;24.60;75.10;;;;;;5094445;28;19912;-73
2023/09/18 00:09:00;;;;;;;;;;;24.70;74.70;;;;;;5093839;28;19954;-73
2023/09/18 00:11:27;;;;;;;;;;;24.90;74.40;;;;;;5085629;28;19920;-68
2023/09/18 00:13:54;;;;;;;;;;;25.10;74.20;;;;;;5095447;28;19912;-69
2023/09/18 00:16:20;;;;;;;;;;;25.20;73.00;;;;;;5094156;28;19916;-69
2023/09/18 00:18:47;;;;;;;;;;;25.40;72.30;;;;;;5093686;28;19923;-72
2023/09/18 00:21:14;;;;;;;;;;;25.50;71.30;;;;;;5094384;28;19985;-69
2023/09/18 00:23:41;;;;;;;;;;;25.60;71.40;;;;;;5082585;28;19935;-73
2023/09/18 00:26:07;;;;;;;;;;;25.80;71.30;;;;;;5095338;28;19919;-69
2023/09/18 00:28:34;;;;;;;;;;;26.00;70.80;;;;;;5096602;28;20011;-73
2023/09/18 00:31:01;;;;;;;;;;;26.20;70.70;;;;;;5087826;28;19912;-70
2023/09/18 00:33:27;;;;;;;;;;;26.30;70.60;;;;;;5086999;28;19912;-71
2023/09/18 00:35:54;;;;;;;;;;;26.40;70.20;;;;;;5093958;28;19939;-68
2023/09/18 00:38:20;;;;;;;;;;;26.60;70.10;;;;;;5093394;28;19912;-70
2023/09/18 00:40:47;;;;;;;;;;;26.80;69.70;;;;;;5093752;28;19912;-69
2023/09/18 00:43:14;;;;;;;;;;;26.90;69.50;;;;;;5082567;28;19919;-71
2023/09/18 00:45:42;;;;;;;;;;;27.10;69.80;;;;;;5075774;28;19914;-73
2023/09/18 00:48:09;;;;;;;;;;;27.30;68.90;;;;;;5093632;28;19959;-69
2023/09/18 00:50:36;;;;;;;;;;;27.60;67.60;;;;;;5080647;28;19919;-70
2023/09/18 00:53:03;;;;;;;;;;;27.80;67.10;;;;;;5079023;28;19913;-70
2023/09/18 00:55:30;;;;;;;;;;;28.00;66.90;;;;;;5073660;28;19958;-70
2023/09/18 00:57:57;;;;;;;;;;;28.20;67.20;;;;;;5090909;28;19912;-69
2023/09/18 01:00:24;;;;;;;;;;;28.40;66.20;;;;;;5093791;28;19916;-68
2023/09/18 01:02:50;;;;;;;;;;;28.60;66.20;;;;;;5093186;28;19908;-70
2023/09/18 01:05:19;;;;;;;;;;;28.80;65.60;;;;;;5093712;28;19915;-69
2023/09/18 01:07:46;;;;;;;;;;;29.00;62.80;;;;;;5094015;28;19908;-69
2023/09/18 01:10:16;;;;;;;;;;;29.20;62.50;;;;;;5093986;28;19991;-68
2023/09/18 01:12:46;;;;;;;;;;;29.50;61.10;;;;;;5093165;28;19961;-72
2023/09/18 01:15:17;;;;;;;;;;;29.70;61.80;;;;;;5093354;28;19912;-71
2023/09/18 01:17:44;;;;;;;;;;;30.00;59.40;;;;;;5084997;28;20373;-71
2023/09/18 01:20:12;;;;;;;;;;;30.20;59.30;;;;;;5073059;28;19965;-70
2023/09/18 01:22:38;;;;;;;;;;;30.40;58.40;;;;;;5077617;28;19984;-68
2023/09/18 01:25:06;;;;;;;;;;;30.50;56.70;;;;;;5076624;28;19912;-68
2023/09/18 01:27:33;;;;;;;;;;;30.80;57.00;;;;;;5086776;28;19912;-70
2023/09/18 01:29:59;;;;;;;;;;;30.90;56.90;;;;;;5089611;28;20292;-68
2023/09/18 01:32:29;;;;;;;;;;;31.20;57.00;;;;;;5093338;28;19912;-70
2023/09/18 01:34:57;;;;;;;;;;;31.40;55.40;;;;;;5090404;28;19919;-67
2023/09/18 01:37:24;;;;;;;;;;;31.70;54.20;;;;;;5091135;28;19928;-68
2023/09/18 01:39:52;;;;;;;;;;;31.80;55.30;;;;;;5091479;28;19948;-68
2023/09/18 01:42:19;;;;;;;;;;;32.10;54.70;;;;;;5087137;28;19916;-68
2023/09/18 01:44:46;;;;;;;;;;;32.30;52.50;;;;;;5093067;28;19908;-71
2023/09/18 01:47:14;;;;;;;;;;;32.60;53.30;;;;;;5092459;28;19920;-71
2023/09/18 01:49:42;;;;;;;;;;;32.70;53.10;;;;;;5092778;28;19912;-69
2023/09/18 01:52:09;;;;;;;;;;;32.90;52.60;;;;;;5091872;28;20011;-70
2023/09/18 01:54:36;;;;;;;;;;;33.20;51.10;;;;;;5092809;28;20729;-72
2023/09/18 01:57:03;;;;;;;;;;;33.40;50.30;;;;;;5088147;28;19973;-69
2023/09/18 01:59:30;;;;;;;;;;;33.50;50.10;;;;;;5083035;28;20287;-69
2023/09/18 02:01:57;;;;;;;;;;;33.60;52.70;;;;;;5090994;28;19912;-69
2023/09/18 02:04:25;;;;;;;;;;;33.80;50.00;;;;;;5072589;28;20438;-71
2023/09/18 02:06:52;;;;;;;;;;;33.90;49.00;;;;;;5071968;28;20360;-70
2023/09/18 02:09:18;;;;;;;;;;;33.90;49.90;;;;;;5082209;28;19915;-70
2023/09/18 02:11:46;;;;;;;;;;;34.00;52.00;;;;;;5091058;28;20365;-69
2023/09/18 02:14:13;;;;;;;;;;;34.30;49.60;;;;;;5081785;28;19948;-71
2023/09/18 02:16:44;;;;;;;;;;;34.40;49.10;;;;;;5092217;28;19962;-70
2023/09/18 02:19:11;;;;;;;;;;;34.60;48.10;;;;;;5086040;28;19908;-72
2023/09/18 02:21:38;;;;;;;;;;;34.60;47.30;;;;;;5078849;28;20368;-70
2023/09/18 02:24:05;;;;;;;;;;;34.70;47.60;;;;;;5092195;28;20368;-70
2023/09/18 02:26:32;;;;;;;;;;;34.60;46.90;;;;;;5092026;28;19908;-71
2023/09/18 02:29:03;;;;;;;;;;;34.80;47.60;;;;;;5092887;28;19947;-71
2023/09/18 02:31:30;;;;;;;;;;;35.00;47.70;;;;;;5112507;28;20352;-71
2023/09/18 02:33:57;;;;;;;;;;;35.10;47.60;;;;;;5092056;28;19924;-68
2023/09/18 02:36:24;;;;;;;;;;;35.50;46.30;;;;;;5086958;28;19920;-71
2023/09/18 02:38:50;;;;;;;;;;;35.90;47.20;;;;;;5072322;28;20361;-69
2023/09/18 02:41:17;;;;;;;;;;;36.50;46.40;;;;;;5072266;28;19912;-71
2023/09/18 02:43:44;;;;;;;;;;;37.20;45.30;;;;;;5087029;28;19912;-69
2023/09/18 02:46:10;;;;;;;;;;;38.10;45.70;;;;;;5079698;28;19908;-69
2023/09/18 02:48:37;;;;;;;;;;;39.00;47.20;;;;;;5088989;28;19924;-69
2023/09/18 02:51:04;;;;;;;;;;;39.80;44.30;;;;;;5078305;28;19912;-72
2023/09/18 02:53:31;;;;;;;;;;;40.50;43.80;;;;;;5091393;28;20549;-70
2023/09/18 02:55:59;;;;;;;;;;;41.50;42.60;;;;;;5079617;28;20027;-70
2023/09/18 02:58:28;;;;;;;;;;;42.50;43.00;;;;;;5077883;28;19958;-71
2023/09/18 03:00:55;;;;;;;;;;;43.50;41.70;;;;;;5077620;28;19912;-70
2023/09/18 03:03:21;;;;;;;;;;;43.70;41.80;;;;;;5083466;28;19912;-72
2023/09/18 03:05:48;;;;;;;;;;;44.20;40.80;;;;;;5095619;28;19927;-71
2023/09/18 03:08:18;;;;;;;;;;;44.70;41.00;;;;;;5095990;28;19984;-73
2023/09/18 03:10:45;;;;;;;;;;;45.50;40.90;;;;;;5095215;28;19951;-71
2023/09/18 03:13:13;;;;;;;;;;;46.40;43.30;;;;;;5084879;28;19908;-71
2023/09/18 03:15:40;;;;;;;;;;;46.60;42.80;;;;;;5075999;28;19917;-72
2023/09/18 03:18:09;;;;;;;;;;;46.30;43.30;;;;;;5092595;28;19958;-70
2023/09/18 03:20:36;;;;;;;;;;;45.90;43.80;;;;;;5094636;28;19908;-72
2023/09/18 03:23:02;;;;;;;;;;;45.70;43.00;;;;;;5085550;28;19909;-68
2023/09/18 03:25:29;;;;;;;;;;;45.10;43.10;;;;;;5075602;28;19999;-68
2023/09/18 03:27:57;;;;;;;;;;;44.30;44.70;;;;;;5076009;28;19978;-70
2023/09/18 03:30:24;;;;;;;;;;;44.60;43.60;;;;;;5075194;28;20283;-70
2023/09/18 03:32:51;;;;;;;;;;;44.90;43.90;;;;;;5082952;28;19908;-68
2023/09/18 03:35:18;;;;;;;;;;;45.50;44.60;;;;;;5095805;28;19939;-69
2023/09/18 03:37:45;;;;;;;;;;;45.30;44.20;;;;;;5093496;28;20273;-68
2023/09/18 03:40:12;;;;;;;;;;;45.70;43.90;;;;;;5074461;28;20271;-69
2023/09/18 03:42:39;;;;;;;;;;;44.40;44.30;;;;;;5090194;28;20277;-69
2023/09/18 03:45:06;;;;;;;;;;;43.90;44.20;;;;;;5095531;28;19909;-70
2023/09/18 03:47:35;;;;;;;;;;;44.00;46.00;;;;;;5094979;28;19955;-70
2023/09/18 03:50:05;;;;;;;;;;;44.60;45.10;;;;;;5077049;28;19920;-71
2023/09/18 03:52:31;;;;;;;;;;;45.00;44.10;;;;;;5079835;28;19961;-72
2023/09/18 03:54:58;;;;;;;;;;;43.00;45.50;;;;;;5092976;28;19980;-71
2023/09/18 03:57:24;;;;;;;;;;;41.80;47.00;;;;;;5094675;28;20563;-71
2023/09/18 03:59:51;;;;;;;;;;;41.90;47.00;;;;;;5092756;28;19925;-71
2023/09/18 04:02:18;;;;;;;;;;;42.80;46.00;;;;;;5082820;28;19931;-69
2023/09/18 04:04:44;;;;;;;;;;;43.10;46.40;;;;;;5092493;28;19908;-70
2023/09/18 04:07:11;;;;;;;;;;;42.40;46.20;;;;;;5074872;28;19908;-70
2023/09/18 04:09:39;;;;;;;;;;;42.00;47.50;;;;;;5085758;28;19908;-69
2023/09/18 04:12:06;;;;;;;;;;;42.50;47.90;;;;;;5092491;28;19912;-68
2023/09/18 04:14:33;;;;;;;;;;;41.90;46.90;;;;;;5073668;28;19916;-70
2023/09/18 04:17:02;;;;;;;;;;;42.60;48.20;;;;;;5090151;28;19917;-71
2023/09/18 04:19:29;;;;;;;;;;;42.50;47.00;;;;;;5084297;28;20541;-70
2023/09/18 04:21:57;;;;;;;;;;;43.60;46.90;;;;;;5094494;28;19919;-69
2023/09/18 04:24:23;;;;;;;;;;;44.20;47.50;;;;;;5094838;28;19916;-71
2023/09/18 04:26:53;;;;;;;;;;;44.10;47.50;;;;;;5075331;28;19958;-69
2023/09/18 04:29:20;;;;;;;;;;;43.80;46.80;;;;;;5090637;28;20253;-69
2023/09/18 04:31:48;;;;;;;;;;;43.00;46.70;;;;;;5074388;28;20392;-70
2023/09/18 04:34:14;;;;;;;;;;;42.40;47.30;;;;;;5088100;28;19915;-69
2023/09/18 04:36:43;;;;;;;;;;;42.70;46.90;;;;;;5092791;28;19927;-69
2023/09/18 04:39:10;;;;;;;;;;;41.20;47.30;;;;;;5083560;28;19952;-70
2023/09/18 04:41:37;;;;;;;;;;;40.90;48.20;;;;;;5094369;28;19966;-71
2023/09/18 04:44:05;;;;;;;;;;;41.50;48.30;;;;;;5089297;28;19958;-70
2023/09/18 04:46:31;;;;;;;;;;;41.30;47.30;;;;;;5088645;28;19912;-70
2023/09/18 04:48:58;;;;;;;;;;;40.40;48.90;;;;;;5078191;28;19920;-71
2023/09/18 04:51:25;;;;;;;;;;;40.10;48.90;;;;;;5074370;28;19944;-72
2023/09/18 04:53:51;;;;;;;;;;;41.20;48.40;;;;;;5089906;28;20002;-71
2023/09/18 04:56:20;;;;;;;;;;;41.50;47.10;;;;;;5083452;28;19928;-71
2023/09/18 04:58:47;;;;;;;;;;;39.50;48.90;;;;;;5098014;28;19912;-73
2023/09/18 05:01:13;;;;;;;;;;;39.90;49.50;;;;;;5097361;28;19948;-71
2023/09/18 05:03:40;;;;;;;;;;;40.70;48.50;;;;;;5093540;28;20418;-70
2023/09/18 05:06:06;;;;;;;;;;;41.10;48.40;;;;;;5093844;28;20006;-71
2023/09/18 05:08:33;;;;;;;;;;;41.30;47.30;;;;;;5093236;28;19961;-74
2023/09/18 05:11:00;;;;;;;;;;;41.60;47.20;;;;;;5092490;28;19972;-74
2023/09/18 05:13:27;;;;;;;;;;;41.60;48.40;;;;;;5091703;28;19930;-73
2023/09/18 05:15:53;;;;;;;;;;;40.80;47.60;;;;;;5093556;28;19908;-72
2023/09/18 05:18:20;;;;;;;;;;;40.20;47.60;;;;;;5092558;28;19935;-73
2023/09/18 05:20:47;;;;;;;;;;;40.70;48.00;;;;;;5090009;28;20242;-74
2023/09/18 05:23:13;;;;;;;;;;;41.10;47.20;;;;;;5080936;28;19920;-74
2023/09/18 05:25:41;;;;;;;;;;;40.80;46.40;;;;;;5079020;28;19908;-74
2023/09/18 05:28:08;;;;;;;;;;;40.80;46.80;;;;;;5093215;28;19958;-71
2023/09/18 05:30:38;;;;;;;;;;;40.50;46.40;;;;;;5073755;28;19962;-72
2023/09/18 05:33:06;;;;;;;;;;;40.40;45.70;;;;;;5080157;28;19908;-72
2023/09/18 05:35:33;;;;;;;;;;;39.90;46.80;;;;;;5093074;28;19912;-73
2023/09/18 05:37:59;;;;;;;;;;;40.60;46.50;;;;;;5090179;28;19920;-70
2023/09/18 05:40:29;;;;;;;;;;;40.30;45.60;;;;;;5091212;28;19912;-73
2023/09/18 05:42:56;;;;;;;;;;;40.00;45.90;;;;;;5092158;28;19908;-72
2023/09/18 05:45:23;;;;;;;;;;;40.20;45.90;;;;;;5092891;28;19947;-71
2023/09/18 05:47:50;;;;;;;;;;;40.00;46.40;;;;;;5092018;28;19920;-71
2023/09/18 05:50:17;;;;;;;;;;;40.50;45.90;;;;;;5091300;28;20293;-73
2023/09/18 05:52:48;;;;;;;;;;;39.20;47.00;;;;;;5089998;28;20609;-71
2023/09/18 05:55:15;;;;;;;;;;;39.70;46.30;;;;;;5092203;28;20288;-73
2023/09/18 05:57:42;;;;;;;;;;;40.00;47.20;;;;;;5091998;28;19917;-72
2023/09/18 06:00:12;;;;;;;;;;;40.20;45.70;;;;;;5091777;28;19908;-71
2023/09/18 06:02:40;;;;;;;;;;;40.60;46.00;;;;;;5087706;28;20010;-72
2023/09/18 06:05:07;;;;;;;;;;;41.20;45.50;;;;;;5089665;28;20383;-74
2023/09/18 06:07:33;;;;;;;;;;;40.80;45.10;;;;;;5091070;28;20040;-73
2023/09/18 06:10:00;;;;;;;;;;;40.90;45.70;;;;;;5090926;28;19916;-71
2023/09/18 06:12:27;;;;;;;;;;;40.40;46.30;;;;;;5082686;28;19916;-71
2023/09/18 06:14:53;;;;;;;;;;;40.70;46.10;;;;;;5089366;28;19919;-73
2023/09/18 06:17:20;;;;;;;;;;;40.70;46.00;;;;;;5088746;28;19937;-73
2023/09/18 06:19:47;;;;;;;;;;;40.90;46.40;;;;;;5091290;28;20030;-71
2023/09/18 06:22:14;;;;;;;;;;;40.10;46.50;;;;;;5088565;28;20006;-73
2023/09/18 06:24:41;;;;;;;;;;;39.60;46.40;;;;;;5088417;28;20040;-72
2023/09/18 06:27:07;;;;;;;;;;;39.90;47.20;;;;;;5091537;28;19909;-71
2023/09/18 06:29:34;;;;;;;;;;;40.70;46.50;;;;;;5091080;28;19920;-72
2023/09/18 06:32:01;;;;;;;;;;;40.60;47.00;;;;;;5079950;28;19956;-70
2023/09/18 06:34:28;;;;;;;;;;;40.60;46.60;;;;;;5086351;28;20373;-71
2023/09/18 06:36:55;;;;;;;;;;;40.50;46.80;;;;;;5089153;28;20316;-71
2023/09/18 06:39:23;;;;;;;;;;;40.50;46.70;;;;;;5090011;28;19908;-70
2023/09/18 06:41:50;;;;;;;;;;;40.30;46.60;;;;;;5088655;28;19912;-71
2023/09/18 06:44:17;;;;;;;;;;;38.90;47.60;;;;;;5075720;28;19916;-69
2023/09/18 06:46:43;;;;;;;;;;;37.70;48.50;;;;;;5088372;28;19998;-69
2023/09/18 06:49:10;;;;;;;;;;;36.70;49.80;;;;;;5091137;28;19920;-69
2023/09/18 06:51:36;;;;;;;;;;;35.80;50.20;;;;;;5097337;28;20002;-69
2023/09/18 06:54:03;;;;;;;;;;;34.50;51.10;;;;;;5078810;28;19994;-72
2023/09/18 06:56:30;;;;;;;;;;;33.70;52.10;;;;;;5071354;28;20064;-69
2023/09/18 06:58:56;;;;;;;;;;;32.90;52.70;;;;;;5076746;28;19915;-69
2023/09/18 07:01:24;;;;;;;;;;;32.20;53.70;;;;;;5091196;28;19916;-69
2023/09/18 07:03:51;;;;;;;;;;;32.00;54.30;;;;;;5079972;28;19915;-70
2023/09/18 07:06:21;;;;;;;;;;;31.40;54.60;;;;;;5087701;28;19912;-70
2023/09/18 07:08:51;;;;;;;;;;;31.10;55.30;;;;;;5088885;28;20014;-70
2023/09/18 07:11:18;;;;;;;;;;;30.70;55.80;;;;;;5088491;28;20482;-71
2023/09/18 07:13:44;;;;;;;;;;;30.40;56.00;;;;;;5088957;28;19908;-71
2023/09/18 07:16:11;;;;;;;;;;;30.30;56.10;;;;;;5089736;28;19924;-69
2023/09/18 07:18:38;;;;;;;;;;;30.30;56.50;;;;;;5089592;28;19997;-71
2023/09/18 07:21:05;;;;;;;;;;;30.20;56.70;;;;;;5085980;28;19912;-72
2023/09/18 07:23:31;;;;;;;;;;;29.90;56.80;;;;;;5089527;28;19962;-71
2023/09/18 07:25:58;;;;;;;;;;;29.70;57.30;;;;;;5089813;28;19923;-70
2023/09/18 07:28:25;;;;;;;;;;;29.50;57.50;;;;;;5088015;28;19908;-71
2023/09/18 07:30:51;;;;;;;;;;;29.20;58.10;;;;;;5089741;28;19962;-70
2023/09/18 07:33:19;;;;;;;;;;;29.00;58.50;;;;;;5087057;28;19908;-71
2023/09/18 07:35:47;;;;;;;;;;;28.80;59.10;;;;;;5086558;28;20433;-70
2023/09/18 07:38:14;;;;;;;;;;;28.70;59.40;;;;;;5093123;28;19962;-71
2023/09/18 07:40:41;;;;;;;;;;;28.50;59.90;;;;;;5093597;28;19965;-70
2023/09/18 07:43:08;;;;;;;;;;;28.20;60.00;;;;;;5091235;28;20280;-70
2023/09/18 07:45:35;;;;;;;;;;;28.10;60.20;;;;;;5092657;28;19912;-71
2023/09/18 07:48:01;;;;;;;;;;;28.00;60.40;;;;;;5089175;28;19920;-69
2023/09/18 07:50:28;;;;;;;;;;;27.90;61.10;;;;;;5091561;28;19919;-71
2023/09/18 07:52:55;;;;;;;;;;;27.70;61.40;;;;;;5093510;28;19916;-70
2023/09/18 07:55:21;;;;;;;;;;;27.60;61.40;;;;;;5086688;28;20292;-68
2023/09/18 07:57:49;;;;;;;;;;;27.50;61.50;;;;;;5093698;28;19923;-70
2023/09/18 08:00:16;;;;;;;;;;;27.40;62.20;;;;;;5090242;28;19920;-71
2023/09/18 08:02:42;;;;;;;;;;;27.30;61.90;;;;;;5089029;28;20246;-69
2023/09/18 08:05:09;;;;;;;;;;;27.30;62.20;;;;;;5090211;28;19955;-71
2023/09/18 08:07:36;;;;;;;;;;;27.10;62.20;;;;;;5094625;28;19965;-72
2023/09/18 08:10:08;;;;;;;;;;;27.00;62.90;;;;;;5094181;28;19908;-73
2023/09/18 08:12:35;;;;;;;;;;;26.90;62.90;;;;;;5093327;28;19912;-72
2023/09/18 08:15:02;;;;;;;;;;;26.90;63.20;;;;;;5085691;28;19909;-72
2023/09/18 08:17:29;;;;;;;;;;;26.90;63.40;;;;;;5090548;28;19974;-71
2023/09/18 08:19:56;;;;;;;;;;;26.80;63.30;;;;;;5092808;28;19912;-73
2023/09/18 08:22:23;;;;;;;;;;;26.70;63.80;;;;;;5094872;28;19912;-71
2023/09/18 08:24:52;;;;;;;;;;;26.60;63.80;;;;;;5086515;28;20017;-72
2023/09/18 08:27:19;;;;;;;;;;;26.60;63.90;;;;;;5094693;28;20349;-71
2023/09/18 08:29:46;;;;;;;;;;;26.50;64.00;;;;;;5094770;28;19912;-70
2023/09/18 08:32:13;;;;;;;;;;;26.40;64.20;;;;;;5094501;28;19923;-67
2023/09/18 08:34:40;;;;;;;;;;;26.30;64.60;;;;;;5079145;28;19916;-72
2023/09/18 08:37:06;;;;;;;;;;;26.30;64.60;;;;;;5081177;28;20016;-68
2023/09/18 08:39:33;;;;;;;;;;;26.30;64.50;;;;;;5094831;28;20325;-73
2023/09/18 08:42:03;;;;;;;;;;;26.20;64.70;;;;;;5094993;28;19953;-68
2023/09/18 08:44:31;;;;;;;;;;;26.10;65.50;;;;;;5094868;28;19916;-71
2023/09/18 08:46:58;;;;;;;;;;;26.00;64.60;;;;;;5093683;28;19939;-71
2023/09/18 08:49:24;;;;;;;;;;;26.00;64.80;;;;;;5074753;28;19996;-70
2023/09/18 08:51:53;;;;;;;;;;;25.90;64.80;;;;;;5074478;28;19915;-70
2023/09/18 08:54:21;;;;;;;;;;;25.90;64.90;;;;;;5074380;28;19909;-69
2023/09/18 08:56:48;;;;;;;;;;;25.80;65.10;;;;;;5084179;28;20397;-67
2023/09/18 08:59:15;;;;;;;;;;;25.80;65.20;;;;;;5087167;28;19911;-70
2023/09/18 09:01:42;;;;;;;;;;;25.80;65.10;;;;;;5094053;28;19912;-70
2023/09/18 09:04:08;;;;;;;;;;;25.70;65.10;;;;;;5086426;28;19904;-73
2023/09/18 09:06:35;;;;;;;;;;;25.70;65.30;;;;;;5080524;28;19916;-69
2023/09/18 09:09:02;;;;;;;;;;;25.60;65.40;;;;;;5079644;28;19919;-67
2023/09/18 09:11:29;;;;;;;;;;;25.60;65.60;;;;;;5074068;28;20339;-68
2023/09/18 09:14:15;;;;;;;;;;;25.60;65.80;;;;;;5074301;28;20012;-68
2023/09/18 09:16:47;;;;;;;;;;;25.60;66.10;;;;;;5081648;28;20007;-67
2023/09/18 09:19:14;;;;;;;;;;;25.50;66.00;;;;;;5094194;28;19919;-66
2023/09/18 09:21:44;;;;;;;;;;;25.50;66.10;;;;;;5083175;28;19908;-67
2023/09/18 09:24:14;;;;;;;;;;;25.40;66.00;;;;;;5073636;28;20304;-67
2023/09/18 09:26:42;;;;;;;;;;;25.40;66.10;;;;;;5074643;28;20325;-71
2023/09/18 09:29:21;;;;;;;;;;;25.30;66.70;;;;;;5073372;28;20011;-68
2023/09/18 09:31:47;;;;;;;;;;;25.20;66.80;;;;;;5073397;28;19908;-67
2023/09/18 09:34:37;;;;;;;;;;;25.10;67.20;;;;;;5073446;28;20369;-69
2023/09/18 09:37:04;;;;;;;;;;;25.10;67.60;;;;;;5073149;28;19916;-68
2023/09/18 09:39:30;;;;;;;;;;;24.90;68.10;;;;;;5073272;28;19920;-68
2023/09/18 09:42:00;;;;;;;;;;;24.90;68.60;;;;;;5076221;28;19916;-71
2023/09/18 09:44:28;;;;;;;;;;;24.80;69.10;;;;;;5091699;28;19912;-69
2023/09/18 09:46:56;;;;;;;;;;;24.70;69.30;;;;;;5093101;28;19953;-67
2023/09/18 09:49:27;;;;;;;;;;;24.60;69.60;;;;;;5080007;28;19978;-68
2023/09/18 09:51:54;;;;;;;;;;;24.60;69.40;;;;;;5073472;28;19916;-67
2023/09/18 09:54:34;;;;;;;;;;;24.60;69.20;;;;;;5073205;28;19908;-69
2023/09/18 09:57:02;;;;;;;;;;;24.50;69.60;;;;;;5079283;28;19920;-68
2023/09/18 09:59:29;;;;;;;;;;;24.50;70.00;;;;;;5091326;28;19912;-69
2023/09/18 10:01:57;;;;;;;;;;;24.40;70.30;;;;;;5072816;28;19908;-67
2023/09/18 10:04:24;;;;;;;;;;;24.30;70.70;;;;;;5073004;28;19951;-67
2023/09/18 10:06:58;;;;;;;;;;;24.30;71.10;;;;;;5072882;28;19908;-67
2023/09/18 10:09:28;;;;;;;;;;;24.20;70.90;;;;;;5086245;28;19912;-65
2023/09/18 10:11:56;;;;;;;;;;;24.20;71.10;;;;;;5093143;28;19935;-67
2023/09/18 10:14:35;;;;;;;;;;;24.20;71.30;;;;;;5093044;28;20662;-71
2023/09/18 10:17:29;;;;;;;;;;;24.20;71.40;;;;;;5092538;28;19930;-68
2023/09/18 10:20:09;;;;;;;;;;;24.10;72.30;;;;;;5090765;28;19912;-68
2023/09/18 10:22:42;;;;;;;;;;;24.00;72.30;;;;;;5092903;28;20057;-69
2023/09/18 10:25:18;;;;;;;;;;;24.00;72.50;;;;;;5092781;28;20284;-68
2023/09/18 10:27:46;;;;;;;;;;;23.90;73.00;;;;;;5090449;28;19912;-68
2023/09/18 10:30:12;;;;;;;;;;;23.80;73.20;;;;;;5089102;28;19912;-68
2023/09/18 10:32:40;;;;;;;;;;;23.70;73.60;;;;;;5072917;28;19969;-66
2023/09/18 10:35:08;;;;;;;;;;;23.60;73.80;;;;;;5072621;28;19916;-68
2023/09/18 10:37:36;;;;;;;;;;;23.60;74.20;;;;;;5072595;28;19999;-69
2023/09/18 10:40:04;;;;;;;;;;;23.50;74.10;;;;;;5072536;28;20307;-68
2023/09/18 10:42:33;;;;;;;;;;;23.50;74.60;;;;;;5072900;28;19909;-67
2023/09/18 10:45:00;;;;;;;;;;;23.40;75.30;;;;;;5072403;28;19912;-69
2023/09/18 10:47:27;;;;;;;;;;;23.30;75.50;;;;;;5073897;28;19971;-67
2023/09/18 10:49:54;;;;;;;;;;;23.20;75.80;;;;;;5075048;28;19912;-68
2023/09/18 10:52:21;;;;;;;;;;;23.20;75.90;;;;;;5070799;28;20345;-68
2023/09/18 10:54:48;;;;;;;;;;;23.10;76.40;;;;;;5072343;28;19908;-67
2023/09/18 10:57:14;;;;;;;;;;;23.10;76.90;;;;;;5072027;28;19975;-68
2023/09/18 10:59:45;;;;;;;;;;;23.10;77.20;;;;;;5072305;28;19909;-66
2023/09/18 11:02:15;;;;;;;;;;;23.10;77.20;;;;;;5072275;28;19924;-67
2023/09/18 11:04:45;;;;;;;;;;;23.10;77.10;;;;;;5071455;28;19912;-67
2023/09/18 11:07:22;;;;;;;;;;;23.10;77.80;;;;;;5076745;28;19987;-70
2023/09/18 11:09:49;;;;;;;;;;;23.00;77.60;;;;;;5090277;28;19913;-68
2023/09/18 11:12:18;;;;;;;;;;;23.00;78.10;;;;;;5099216;28;19912;-66
2023/09/18 11:14:49;;;;;;;;;;;23.00;78.70;;;;;;5093118;28;19912;-66
2023/09/18 11:17:34;;;;;;;;;;;22.90;78.50;;;;;;5088780;28;19924;-69
2023/09/18 11:20:09;;;;;;;;;;;22.90;78.60;;;;;;5080753;28;20375;-71
2023/09/18 11:22:37;;;;;;;;;;;22.80;78.90;;;;;;5095942;28;20101;-71
2023/09/18 11:25:22;;;;;;;;;;;22.70;79.20;;;;;;5094922;28;20425;-71
2023/09/18 11:27:55;;;;;;;;;;;22.70;79.80;;;;;;5085208;28;19913;-69
2023/09/18 11:30:23;;;;;;;;;;;22.60;80.30;;;;;;5094468;28;19919;-66
2023/09/18 11:32:50;;;;;;;;;;;22.60;80.40;;;;;;5096123;28;19908;-70
2023/09/18 11:35:18;;;;;;;;;;;22.60;80.80;;;;;;5095584;28;19916;-69
2023/09/18 11:37:45;;;;;;;;;;;22.60;80.90;;;;;;5089946;28;20297;-72
2023/09/18 11:40:33;;;;;;;;;;;22.50;81.00;;;;;;5075539;28;20327;-71
2023/09/18 11:43:23;;;;;;;;;;;22.50;81.30;;;;;;5075578;28;19955;-67
2023/09/18 11:45:51;;;;;;;;;;;22.50;81.50;;;;;;5071982;28;19951;-69
2023/09/18 11:48:18;;;;;;;;;;;22.40;81.80;;;;;;5094448;28;19927;-67
2023/09/18 11:50:46;;;;;;;;;;;22.40;82.00;;;;;;5095657;28;19976;-69
2023/09/18 11:53:15;;;;;;;;;;;22.30;82.50;;;;;;5095452;28;19915;-70
2023/09/18 11:55:42;;;;;;;;;;;22.30;82.40;;;;;;5082397;28;19912;-67
2023/09/18 11:58:09;;;;;;;;;;;22.20;82.60;;;;;;5075312;28;19916;-69
2023/09/18 12:00:45;;;;;;;;;;;22.20;83.00;;;;;;5075393;28;19908;-68
2023/09/18 12:03:27;;;;;;;;;;;22.10;83.50;;;;;;5075107;28;20013;-68
2023/09/18 12:06:01;;;;;;;;;;;22.10;84.10;;;;;;5075326;28;19909;-69
2023/09/18 12:08:32;;;;;;;;;;;22.10;84.60;;;;;;5090209;28;20258;-70
2023/09/18 12:10:59;;;;;;;;;;;22.00;84.80;;;;;;5095304;28;20276;-68
2023/09/18 12:13:27;;;;;;;;;;;22.00;85.20;;;;;;5095587;28;20391;-69
2023/09/18 12:15:58;;;;;;;;;;;21.90;85.40;;;;;;5095300;28;19915;-67
2023/09/18 12:18:28;;;;;;;;;;;21.90;85.80;;;;;;5094968;28;19920;-70
2023/09/18 12:20:58;;;;;;;;;;;21.90;86.10;;;;;;5094739;28;19908;-67
2023/09/18 12:23:26;;;;;;;;;;;21.90;86.60;;;;;;5095177;28;19915;-68
2023/09/18 12:25:59;;;;;;;;;;;21.90;86.90;;;;;;5095301;28;19974;-74
2023/09/18 12:28:29;;;;;;;;;;;21.80;87.20;;;;;;5079701;28;20467;-72
2023/09/18 12:30:58;;;;;;;;;;;21.70;87.50;;;;;;5074665;28;19920;-67
2023/09/18 12:33:26;;;;;;;;;;;21.70;87.80;;;;;;5074677;28;20285;-73
2023/09/18 12:35:53;;;;;;;;;;;21.70;88.10;;;;;;5074602;28;19908;-69
2023/09/18 12:38:24;;;;;;;;;;;21.60;88.50;;;;;;5074405;28;20007;-68
2023/09/18 12:40:52;;;;;;;;;;;21.60;89.20;;;;;;5074379;28;20029;-67
2023/09/18 12:43:19;;;;;;;;;;;21.60;89.40;;;;;;5074474;28;19954;-69
2023/09/18 12:45:46;;;;;;;;;;;21.50;89.80;;;;;;5078369;28;20321;-67
2023/09/18 12:48:13;;;;;;;;;;;21.50;90.10;;;;;;5074394;28;19959;-67
2023/09/18 12:50:40;;;;;;;;;;;21.40;90.20;;;;;;5074446;28;19963;-68
2023/09/18 12:53:08;;;;;;;;;;;21.40;90.40;;;;;;5072779;28;19916;-67
2023/09/18 12:55:35;;;;;;;;;;;21.40;90.50;;;;;;5074404;28;19909;-69
2023/09/18 12:58:07;;;;;;;;;;;21.40;90.70;;;;;;5074250;28;19917;-70
2023/09/18 13:00:34;;;;;;;;;;;21.30;90.50;;;;;;5074429;28;19913;-74
2023/09/18 13:03:04;;;;;;;;;;;21.20;90.70;;;;;;5072908;28;19908;-68
2023/09/18 13:05:34;;;;;;;;;;;21.30;91.00;;;;;;5072879;28;19908;-69
2023/09/18 13:08:05;;;;;;;;;;;21.20;91.20;;;;;;5073691;28;19946;-69
2023/09/18 13:10:43;;;;;;;;;;;21.20;91.20;;;;;;5073676;28;19909;-67
2023/09/18 13:13:16;;;;;;;;;;;21.20;91.40;;;;;;5073755;28;19908;-70
2023/09/18 13:15:45;;;;;;;;;;;21.20;91.60;;;;;;5073715;28;19960;-72
2023/09/18 13:18:12;;;;;;;;;;;21.10;91.70;;;;;;5073439;28;20391;-70
2023/09/18 13:20:40;;;;;;;;;;;21.10;91.70;;;;;;5073494;28;20011;-69
2023/09/18 13:23:07;;;;;;;;;;;21.10;91.80;;;;;;5073898;28;19948;-68
2023/09/18 13:25:38;;;;;;;;;;;21.10;91.80;;;;;;5073905;28;19952;-69
2023/09/18 13:28:06;;;;;;;;;;;21.10;91.90;;;;;;5073557;28;19912;-71
2023/09/18 13:30:39;;;;;;;;;;;21.00;92.10;;;;;;5072247;28;19912;-67
2023/09/18 13:33:08;;;;;;;;;;;21.00;92.30;;;;;;5072663;28;20384;-67
2023/09/18 13:35:37;;;;;;;;;;;21.00;92.70;;;;;;5083089;28;19919;-69
2023/09/18 13:38:05;;;;;;;;;;;20.90;92.80;;;;;;5093755;28;19920;-67
2023/09/18 13:40:38;;;;;;;;;;;20.90;92.80;;;;;;5093582;28;19908;-68
2023/09/18 13:43:05;;;;;;;;;;;20.90;92.50;;;;;;5093577;28;19913;-68
2023/09/18 13:45:32;;;;;;;;;;;20.90;92.50;;;;;;5093683;28;19960;-67
2023/09/18 13:47:59;;;;;;;;;;;20.80;92.80;;;;;;5092760;28;19927;-72
2023/09/18 13:50:26;;;;;;;;;;;20.80;92.70;;;;;;5093376;28;19915;-68
2023/09/18 13:52:53;;;;;;;;;;;20.70;92.70;;;;;;5093277;28;20253;-68
2023/09/18 13:55:20;;;;;;;;;;;20.70;92.80;;;;;;5092596;28;19908;-66
2023/09/18 13:57:47;;;;;;;;;;;20.80;93.00;;;;;;5092934;28;19924;-69
2023/09/18 14:00:14;;;;;;;;;;;20.70;92.90;;;;;;5093187;28;19915;-67
2023/09/18 14:02:41;;;;;;;;;;;20.70;93.00;;;;;;5093089;28;19908;-66
2023/09/18 14:05:10;;;;;;;;;;;20.70;92.70;;;;;;5092840;28;19912;-68
2023/09/18 14:07:39;;;;;;;;;;;20.70;92.80;;;;;;5092673;28;19919;-69
2023/09/18 14:10:07;;;;;;;;;;;20.60;93.00;;;;;;5092857;28;19908;-72
2023/09/18 14:12:33;;;;;;;;;;;20.60;93.10;;;;;;5093008;28;19908;-70
2023/09/18 14:15:00;;;;;;;;;;;20.60;93.40;;;;;;5093121;28;20272;-66
2023/09/18 14:17:27;;;;;;;;;;;20.60;93.90;;;;;;5092925;28;19915;-68
2023/09/18 14:19:53;;;;;;;;;;;20.60;94.00;;;;;;5092889;28;19908;-66
2023/09/18 14:22:20;;;;;;;;;;;20.50;94.10;;;;;;5091890;28;20389;-68